createdAt,value
2022-09-23T00:01:07.820Z,21.35
2022-09-23T00:03:37.252Z,12.00
2022-09-23T00:06:13.309Z,12.93
2022-09-23T00:08:41.040Z,12.77
2022-09-23T00:11:14.091Z,12.77
2022-09-23T00:13:42.889Z,13.85
2022-09-23T00:16:12.993Z,13.35
2022-09-23T00:18:40.765Z,17.60
2022-09-23T00:21:10.905Z,11.85
2022-09-23T00:23:38.723Z,12.48
2022-09-23T00:26:07.807Z,12.07
2022-09-23T00:28:35.141Z,13.07
2022-09-23T00:31:14.035Z,11.57
2022-09-23T00:33:41.034Z,17.42
2022-09-23T00:36:11.771Z,16.33
2022-09-23T00:38:39.074Z,17.83
2022-09-23T00:41:06.484Z,17.38
2022-09-23T00:43:47.726Z,23.58
2022-09-23T00:46:37.171Z,19.50
2022-09-23T00:49:18.510Z,22.50
2022-09-23T00:51:54.148Z,15.45
2022-09-23T00:54:23.947Z,13.40
2022-09-23T00:56:50.901Z,12.43
2022-09-23T00:59:17.629Z,13.25
2022-09-23T01:01:44.675Z,15.10
2022-09-23T01:04:11.560Z,11.43
2022-09-23T01:06:38.220Z,14.80
2022-09-23T01:09:04.976Z,11.07
2022-09-23T01:11:38.072Z,10.75
2022-09-23T01:14:17.083Z,10.50
2022-09-23T01:17:24.277Z,11.45
2022-09-23T01:19:50.825Z,10.77
2022-09-23T01:22:32.479Z,15.07
2022-09-23T01:25:16.534Z,13.73
2022-09-23T01:28:11.351Z,12.52
2022-09-23T01:30:44.300Z,13.18
2022-09-23T01:33:39.556Z,12.63
2022-09-23T01:36:22.679Z,13.27
2022-09-23T01:38:59.193Z,14.23
2022-09-23T01:41:34.550Z,14.27
2022-09-23T01:44:11.303Z,13.30
2022-09-23T01:46:51.687Z,12.30
2022-09-23T01:49:21.394Z,11.75
2022-09-23T01:52:23.244Z,11.00
2022-09-23T01:55:13.084Z,13.65
2022-09-23T01:58:14.903Z,14.82
2022-09-23T02:00:54.775Z,12.48
2022-09-23T02:03:28.122Z,15.57
2022-09-23T02:06:10.652Z,13.95
2022-09-23T02:08:58.278Z,17.88
2022-09-23T02:11:25.015Z,12.20
2022-09-23T02:14:19.586Z,17.40
2022-09-23T02:16:50.098Z,16.42
2022-09-23T02:19:24.652Z,14.25
2022-09-23T02:22:08.393Z,14.00
2022-09-23T02:24:38.294Z,15.13
2022-09-23T02:27:19.765Z,12.30
2022-09-23T02:29:53.978Z,16.00
2022-09-23T02:32:20.509Z,14.93
2022-09-23T02:35:03.316Z,17.30
2022-09-23T02:37:33.466Z,16.45
2022-09-23T02:40:23.574Z,17.13
2022-09-23T02:43:05.608Z,18.63
2022-09-23T02:45:33.829Z,15.50
2022-09-23T02:48:19.439Z,13.82
2022-09-23T02:50:47.780Z,15.93
2022-09-23T02:53:16.186Z,13.30
2022-09-23T02:55:43.209Z,17.73
2022-09-23T02:58:13.409Z,14.25
2022-09-23T03:00:46.060Z,14.60
2022-09-23T03:03:39.065Z,16.60
2022-09-23T03:06:47.684Z,14.80
2022-09-23T03:09:24.698Z,12.13
2022-09-23T03:12:02.606Z,11.95
2022-09-23T03:14:40.880Z,14.32
2022-09-23T03:17:19.984Z,13.27
2022-09-23T03:19:54.002Z,12.53
2022-09-23T03:22:44.059Z,12.77
2022-09-23T03:27:42.498Z,12.75
2022-09-23T03:30:10.678Z,11.40
2022-09-23T03:32:38.432Z,15.10
2022-09-23T03:35:06.075Z,12.30
2022-09-23T03:37:39.400Z,12.52
2022-09-23T03:40:19.836Z,14.52
2022-09-23T03:42:50.204Z,12.82
2022-09-23T03:45:25.903Z,14.00
2022-09-23T03:47:52.518Z,17.58
2022-09-23T03:50:20.884Z,16.77
2022-09-23T03:52:50.466Z,20.30
2022-09-23T03:55:19.239Z,18.92
2022-09-23T03:57:46.392Z,24.92
2022-09-23T04:00:14.784Z,19.08
2022-09-23T04:02:42.032Z,18.45
2022-09-23T04:05:09.575Z,22.88
2022-09-23T04:07:36.612Z,18.02
2022-09-23T04:10:05.022Z,20.48
2022-09-23T04:12:31.708Z,23.27
2022-09-23T04:14:58.428Z,27.27
2022-09-23T04:17:25.256Z,20.67
2022-09-23T04:19:51.875Z,22.77
2022-09-23T04:22:18.508Z,39.05
2022-09-23T04:24:45.113Z,174.45
2022-09-23T04:27:11.730Z,17.95
2022-09-23T04:29:38.388Z,22.25
2022-09-23T04:32:05.143Z,22.13
2022-09-23T04:34:31.746Z,26.08
2022-09-23T04:36:58.401Z,22.52
2022-09-23T04:39:25.001Z,20.92
2022-09-23T04:41:51.644Z,18.10
2022-09-23T04:44:18.880Z,18.73
2022-09-23T04:46:49.373Z,18.02
2022-09-23T04:49:16.406Z,22.77
2022-09-23T04:51:43.721Z,20.33
2022-09-23T04:54:12.769Z,22.15
2022-09-23T04:56:42.462Z,20.98
2022-09-23T04:59:09.404Z,24.00
2022-09-23T05:01:36.755Z,20.00
2022-09-23T05:04:10.186Z,19.40
2022-09-23T05:06:37.477Z,19.95
2022-09-23T05:09:07.090Z,16.65
2022-09-23T05:11:34.615Z,15.13
2022-09-23T05:14:01.585Z,18.85
2022-09-23T05:16:28.344Z,17.02
2022-09-23T05:18:54.978Z,18.45
2022-09-23T05:21:23.880Z,18.45
2022-09-23T05:23:56.599Z,21.73
2022-09-23T05:26:28.119Z,16.90
2022-09-23T05:28:55.393Z,18.23
2022-09-23T05:31:24.700Z,23.88
2022-09-23T05:33:53.738Z,23.92
2022-09-23T05:36:22.064Z,21.63
2022-09-23T05:38:50.146Z,21.20
2022-09-23T05:41:17.871Z,23.52
2022-09-23T05:43:45.149Z,24.70
2022-09-23T05:46:14.517Z,29.27
2022-09-23T05:48:42.301Z,30.92
2022-09-23T05:51:13.059Z,29.65
2022-09-23T05:53:44.935Z,31.58
2022-09-23T05:56:17.262Z,32.97
2022-09-23T05:58:44.641Z,30.30
2022-09-23T06:01:15.244Z,28.73
2022-09-23T06:03:41.904Z,32.83
2022-09-23T06:06:14.790Z,27.10
2022-09-23T06:08:42.439Z,27.30
2022-09-23T06:11:10.244Z,26.10
2022-09-23T06:13:38.366Z,31.52
2022-09-23T06:16:10.293Z,24.35
2022-09-23T06:18:42.209Z,26.05
2022-09-23T06:21:11.757Z,25.35
2022-09-23T06:23:41.082Z,22.45
2022-09-23T06:26:10.354Z,24.23
2022-09-23T06:28:38.849Z,24.23
2022-09-23T06:31:12.853Z,21.70
2022-09-23T06:33:39.966Z,22.77
2022-09-23T06:36:07.851Z,19.23
2022-09-23T06:38:35.525Z,20.50
2022-09-23T06:41:03.284Z,17.35
2022-09-23T06:43:30.666Z,19.75
2022-09-23T06:46:00.987Z,29.67
2022-09-23T06:48:28.743Z,16.17
2022-09-23T06:50:59.714Z,14.02
2022-09-23T06:53:26.490Z,17.08
2022-09-23T06:56:02.515Z,16.88
2022-09-23T06:58:31.729Z,21.83
2022-09-23T07:01:02.939Z,17.13
2022-09-23T07:03:29.863Z,18.35
2022-09-23T07:05:56.723Z,17.50
2022-09-23T07:08:24.926Z,22.17
2022-09-23T07:10:53.091Z,17.58
2022-09-23T07:13:19.839Z,17.23
2022-09-23T07:15:54.523Z,18.85
2022-09-23T07:18:25.707Z,18.20
2022-09-23T07:20:53.428Z,17.65
2022-09-23T07:23:20.945Z,20.35
2022-09-23T07:25:50.413Z,16.67
2022-09-23T07:28:17.892Z,18.33
2022-09-23T07:30:56.036Z,17.67
2022-09-23T07:33:32.128Z,15.88
2022-09-23T07:35:59.163Z,18.00
2022-09-23T07:38:30.081Z,18.90
2022-09-23T07:41:11.410Z,22.83
2022-09-23T07:43:39.772Z,15.13
2022-09-23T07:46:10.384Z,19.42
2022-09-23T07:48:38.150Z,15.73
2022-09-23T07:51:12.969Z,18.83
2022-09-23T07:53:40.246Z,16.95
2022-09-23T07:56:07.434Z,15.98
2022-09-23T07:58:35.155Z,20.40
2022-09-23T08:01:04.280Z,15.50
2022-09-23T08:03:31.128Z,17.80
2022-09-23T08:06:13.823Z,19.80
2022-09-23T08:08:43.770Z,29.38
2022-09-23T08:11:13.392Z,15.32
2022-09-23T08:13:41.173Z,16.05
2022-09-23T08:16:08.347Z,16.80
2022-09-23T08:18:35.408Z,16.95
2022-09-23T08:21:02.318Z,15.23
2022-09-23T08:23:33.540Z,15.40
2022-09-23T08:26:03.011Z,14.80
2022-09-23T08:28:30.333Z,14.35
2022-09-23T08:30:57.087Z,15.75
2022-09-23T08:33:24.687Z,14.48
2022-09-23T08:35:52.503Z,20.55
2022-09-23T08:38:20.393Z,15.23
2022-09-23T08:40:49.609Z,14.00
2022-09-23T08:43:26.489Z,16.27
2022-09-23T08:45:55.514Z,14.10
2022-09-23T08:48:36.819Z,15.50
2022-09-23T08:51:12.491Z,15.82
2022-09-23T08:53:39.955Z,15.07
2022-09-23T08:56:19.386Z,15.13
2022-09-23T08:59:14.865Z,17.60
2022-09-23T09:01:46.209Z,13.55
2022-09-23T09:04:23.131Z,15.23
2022-09-23T09:07:24.662Z,13.05
2022-09-23T09:09:50.726Z,13.70
2022-09-23T09:12:40.920Z,16.13
2022-09-23T09:15:15.371Z,13.00
2022-09-23T09:18:01.239Z,14.88
2022-09-23T09:20:59.407Z,15.77
2022-09-23T09:23:40.124Z,13.00
2022-09-23T09:26:15.613Z,13.90
2022-09-23T09:28:48.893Z,12.10
2022-09-23T09:31:24.689Z,11.02
2022-09-23T09:34:20.293Z,9.77
2022-09-23T09:37:06.173Z,13.23
2022-09-23T09:39:35.247Z,10.45
2022-09-23T09:42:03.428Z,12.27
2022-09-23T09:44:46.787Z,14.00
2022-09-23T09:47:28.746Z,12.52
2022-09-23T09:50:11.884Z,12.98
2022-09-23T09:52:38.473Z,12.85
2022-09-23T09:55:14.423Z,12.35
2022-09-23T09:57:52.127Z,15.60
2022-09-23T10:00:26.362Z,13.63
2022-09-23T10:02:53.801Z,12.65
2022-09-23T10:05:49.705Z,10.90
2022-09-23T10:08:24.737Z,9.43
2022-09-23T10:11:13.045Z,8.45
2022-09-23T10:13:39.648Z,11.45
2022-09-23T10:16:07.414Z,15.88
2022-09-23T10:18:37.508Z,10.50
2022-09-23T10:21:09.061Z,10.05
2022-09-23T10:24:01.593Z,12.07
2022-09-23T10:26:34.452Z,10.70
2022-09-23T10:29:23.130Z,13.93
2022-09-23T10:31:53.217Z,11.73
2022-09-23T10:34:27.705Z,7.82
2022-09-23T10:37:01.799Z,8.55
2022-09-23T10:39:52.032Z,9.95
2022-09-23T10:43:02.273Z,8.65
2022-09-23T10:45:56.094Z,9.35
2022-09-23T10:48:40.781Z,8.70
2022-09-23T10:51:14.447Z,9.05
2022-09-23T10:53:59.687Z,8.32
2022-09-23T10:56:36.240Z,8.13
2022-09-23T10:59:41.173Z,6.50
2022-09-23T11:02:25.464Z,6.53
2022-09-23T11:05:18.683Z,9.02
2022-09-23T11:07:48.332Z,6.25
2022-09-23T11:10:45.517Z,6.53
2022-09-23T11:13:30.988Z,7.30
2022-09-23T11:16:24.732Z,6.93
2022-09-23T11:19:21.902Z,8.43
2022-09-23T11:22:08.308Z,6.57
2022-09-23T11:24:58.085Z,11.00
2022-09-23T11:28:01.518Z,12.07
2022-09-23T11:30:59.843Z,13.63
2022-09-23T11:33:44.834Z,10.88
2022-09-23T11:36:26.402Z,11.50
2022-09-23T11:38:56.855Z,13.00
2022-09-23T11:41:29.285Z,7.88
2022-09-23T11:44:41.198Z,6.13
2022-09-23T11:47:16.613Z,6.57
2022-09-23T11:50:17.777Z,7.65
2022-09-23T11:52:51.967Z,10.77
2022-09-23T11:55:24.422Z,7.18
2022-09-23T11:57:54.668Z,8.32
2022-09-23T12:00:23.915Z,5.82
2022-09-23T12:03:05.748Z,7.18
2022-09-23T12:05:41.773Z,7.10
2022-09-23T12:08:29.347Z,5.93
2022-09-23T12:11:06.581Z,9.73
2022-09-23T12:13:41.836Z,5.55
2022-09-23T12:16:49.071Z,7.70
2022-09-23T12:19:42.904Z,5.90
2022-09-23T12:22:26.524Z,7.30
2022-09-23T12:25:18.336Z,7.10
2022-09-23T12:27:53.086Z,6.05
2022-09-23T12:30:23.492Z,6.38
2022-09-23T12:32:50.594Z,5.90
2022-09-23T12:35:32.109Z,6.35
2022-09-23T12:38:01.187Z,6.45
2022-09-23T12:40:44.752Z,5.93
2022-09-23T12:43:33.061Z,7.55
2022-09-23T12:46:18.082Z,7.47
2022-09-23T12:49:00.593Z,5.72
2022-09-23T12:51:32.841Z,4.60
2022-09-23T12:54:05.363Z,4.95
2022-09-23T12:56:37.944Z,6.80
2022-09-23T12:59:25.919Z,5.20
2022-09-23T13:01:53.540Z,4.70
2022-09-23T13:05:14.632Z,6.57
2022-09-23T13:07:47.192Z,5.65
2022-09-23T13:10:32.844Z,5.85
2022-09-23T13:13:02.676Z,6.28
2022-09-23T13:18:20.254Z,12.88
2022-09-23T13:20:52.055Z,7.60
2022-09-23T13:23:34.296Z,7.47
2022-09-23T13:26:09.828Z,5.65
2022-09-23T13:28:54.050Z,7.28
2022-09-23T13:31:21.379Z,6.13
2022-09-23T13:33:59.669Z,7.32
2022-09-23T13:36:27.048Z,7.43
2022-09-23T13:38:53.714Z,7.80
2022-09-23T13:41:28.570Z,6.05
2022-09-23T13:44:00.568Z,6.63
2022-09-23T13:46:40.842Z,5.72
2022-09-23T13:49:26.785Z,8.35
2022-09-23T13:51:55.190Z,5.03
2022-09-23T13:54:35.481Z,5.20
2022-09-23T13:57:03.058Z,5.30
2022-09-23T13:59:36.784Z,5.15
2022-09-23T14:02:20.077Z,8.00
2022-09-23T14:04:47.316Z,8.20
2022-09-23T14:07:16.855Z,6.68
2022-09-23T14:09:48.314Z,5.43
2022-09-23T14:12:21.943Z,6.07
2022-09-23T14:14:51.227Z,6.68
2022-09-23T14:17:23.399Z,5.50
2022-09-23T14:19:51.060Z,5.75
2022-09-23T14:22:25.130Z,5.25
2022-09-23T14:24:52.459Z,7.15
2022-09-23T14:27:30.015Z,5.28
2022-09-23T14:29:58.015Z,6.53
2022-09-23T14:32:28.260Z,6.70
2022-09-23T14:35:01.012Z,6.65
2022-09-23T14:37:55.356Z,7.20
2022-09-23T14:40:22.223Z,4.22
2022-09-23T14:43:15.780Z,5.43
2022-09-23T14:45:50.549Z,6.25
2022-09-23T14:48:23.047Z,5.57
2022-09-23T14:51:07.472Z,6.65
2022-09-23T14:53:35.505Z,9.25
2022-09-23T14:56:12.024Z,6.75
2022-09-23T14:58:54.972Z,8.82
2022-09-23T15:01:30.916Z,5.60
2022-09-23T15:04:10.052Z,11.27
2022-09-23T15:06:39.609Z,8.70
2022-09-23T15:09:07.404Z,6.93
2022-09-23T15:11:36.089Z,5.82
2022-09-23T15:14:33.114Z,9.85
2022-09-23T15:16:51.507Z,6.03
2022-09-23T15:19:21.050Z,9.23
2022-09-23T15:21:53.219Z,9.07
2022-09-23T15:24:35.985Z,8.60
2022-09-23T15:27:09.768Z,7.20
2022-09-23T15:29:36.885Z,4.78
2022-09-23T15:32:03.583Z,5.00
2022-09-23T15:34:31.785Z,5.47
2022-09-23T15:36:58.470Z,6.22
2022-09-23T15:39:35.547Z,5.30
2022-09-23T15:42:02.773Z,11.20
2022-09-23T15:44:30.330Z,7.65
2022-09-23T15:47:01.126Z,7.82
2022-09-23T15:49:31.737Z,6.07
2022-09-23T15:52:04.216Z,7.63
2022-09-23T15:54:32.502Z,6.00
2022-09-23T15:57:01.181Z,6.40
2022-09-23T15:59:28.776Z,6.85
2022-09-23T16:01:56.927Z,6.75
2022-09-23T16:04:23.757Z,9.07
2022-09-23T16:06:50.550Z,9.63
2022-09-23T16:09:17.324Z,10.05
2022-09-23T16:11:47.092Z,11.35
2022-09-23T16:14:15.814Z,7.07
2022-09-23T16:16:47.846Z,15.82
2022-09-23T16:19:16.212Z,8.55
2022-09-23T16:21:44.011Z,7.03
2022-09-23T16:24:18.755Z,7.68
2022-09-23T16:26:48.122Z,7.40
2022-09-23T16:29:15.207Z,8.25
2022-09-23T16:31:41.892Z,6.20
2022-09-23T16:34:08.595Z,7.18
2022-09-23T16:36:41.055Z,6.82
2022-09-23T16:39:10.995Z,7.85
2022-09-23T16:41:37.686Z,7.45
2022-09-23T16:44:07.417Z,8.93
2022-09-23T16:46:34.940Z,13.52
2022-09-23T16:49:01.625Z,7.95
2022-09-23T16:51:31.083Z,9.60
2022-09-23T16:53:59.376Z,12.15
2022-09-23T16:56:29.236Z,16.45
2022-09-23T16:58:56.847Z,13.32
2022-09-23T17:01:45.167Z,19.55
2022-09-23T17:04:13.256Z,19.67
2022-09-23T17:06:53.071Z,17.95
2022-09-23T17:09:21.997Z,18.48
2022-09-23T17:11:56.360Z,25.08
2022-09-23T17:14:23.100Z,16.52
2022-09-23T17:16:49.756Z,24.70
2022-09-23T17:19:16.384Z,19.55
2022-09-23T17:21:43.212Z,17.02
2022-09-23T17:24:10.306Z,23.27
2022-09-23T17:26:38.307Z,20.40
2022-09-23T17:29:05.003Z,23.52
2022-09-23T17:31:31.742Z,16.83
2022-09-23T17:33:58.395Z,25.45
2022-09-23T17:36:25.028Z,22.15
2022-09-23T17:38:54.591Z,25.13
2022-09-23T17:41:21.803Z,20.65
2022-09-23T17:43:54.430Z,22.85
2022-09-23T17:46:21.154Z,21.30
2022-09-23T17:48:47.805Z,22.65
2022-09-23T17:51:21.628Z,22.52
2022-09-23T17:53:49.580Z,40.75
2022-09-23T17:56:19.250Z,28.40
2022-09-23T17:58:47.808Z,25.83
2022-09-23T18:01:19.780Z,28.48
2022-09-23T18:03:47.450Z,17.88
2022-09-23T18:06:15.315Z,19.77
2022-09-23T18:08:43.941Z,22.77
2022-09-23T18:11:20.299Z,23.77
2022-09-23T18:13:52.218Z,18.40
2022-09-23T18:16:20.741Z,20.00
2022-09-23T18:18:52.682Z,33.50
2022-09-23T18:21:20.430Z,36.42
2022-09-23T18:23:47.567Z,30.95
2022-09-23T18:26:19.054Z,28.80
2022-09-23T18:28:45.827Z,25.40
2022-09-23T18:31:12.540Z,28.08
2022-09-23T18:33:39.265Z,27.15
2022-09-23T18:36:07.560Z,23.33
2022-09-23T18:38:34.757Z,27.45
2022-09-23T18:41:01.808Z,41.10
2022-09-23T18:43:40.550Z,39.13
2022-09-23T18:46:17.142Z,48.78
2022-09-23T18:49:02.803Z,40.20
2022-09-23T18:51:36.502Z,37.80
2022-09-23T18:54:05.950Z,43.40
2022-09-23T18:56:39.638Z,55.40
2022-09-23T18:59:07.281Z,57.42
2022-09-23T19:01:34.691Z,63.28
2022-09-23T19:04:04.739Z,65.57
2022-09-23T19:08:59.371Z,83.65
2022-09-23T19:11:26.778Z,95.30
2022-09-23T19:13:59.239Z,103.57
2022-09-23T19:16:26.510Z,98.55
2022-09-23T19:18:53.596Z,95.55
2022-09-23T19:21:23.544Z,70.88
2022-09-23T19:26:23.653Z,87.85
2022-09-23T19:28:57.791Z,53.22
2022-09-23T19:31:33.522Z,25.67
2022-09-23T19:34:02.592Z,41.95
2022-09-23T19:36:34.176Z,55.13
2022-09-23T19:39:06.584Z,52.53
2022-09-23T19:41:35.339Z,45.42
2022-09-23T19:44:03.285Z,39.38
2022-09-23T19:46:31.179Z,40.35
2022-09-23T19:48:58.618Z,60.63
2022-09-23T19:51:25.386Z,68.25
2022-09-23T19:53:53.376Z,67.35
2022-09-23T19:56:20.238Z,69.47
2022-09-23T19:58:49.880Z,68.72
2022-09-23T20:01:17.168Z,63.78
2022-09-23T20:03:45.043Z,69.00
2022-09-23T20:06:12.038Z,64.63
2022-09-23T20:08:39.289Z,62.75
2022-09-23T20:11:22.658Z,56.63
2022-09-23T20:14:04.981Z,66.70
2022-09-23T20:16:37.080Z,60.92
2022-09-23T20:19:04.896Z,60.00
2022-09-23T20:21:33.646Z,62.47
2022-09-23T20:24:00.975Z,59.55
2022-09-23T20:26:47.920Z,67.65
2022-09-23T20:29:14.664Z,67.85
2022-09-23T20:31:41.478Z,62.70
2022-09-23T20:34:10.306Z,60.88
2022-09-23T20:36:39.823Z,54.55
2022-09-23T20:39:07.288Z,54.25
2022-09-23T20:41:37.605Z,55.80
2022-09-23T20:44:07.497Z,52.97
2022-09-23T20:46:34.795Z,50.40
2022-09-23T20:49:02.105Z,49.85
2022-09-23T20:51:28.925Z,53.88
2022-09-23T20:53:55.680Z,60.33
2022-09-23T20:56:23.694Z,58.00
2022-09-23T20:58:52.867Z,56.85
2022-09-23T21:01:20.622Z,52.30
2022-09-23T21:03:50.050Z,48.13
2022-09-23T21:06:19.113Z,53.78
2022-09-23T21:08:46.724Z,44.77
2022-09-23T21:11:16.306Z,45.40
2022-09-23T21:13:47.824Z,48.20
2022-09-23T21:16:17.131Z,44.42
2022-09-23T21:18:44.953Z,43.72
2022-09-23T21:21:14.513Z,43.38
2022-09-23T21:23:43.438Z,50.03
2022-09-23T21:26:11.461Z,49.40
2022-09-23T21:28:43.367Z,51.63
2022-09-23T21:31:25.917Z,45.95
2022-09-23T21:34:01.985Z,49.22
2022-09-23T21:36:32.881Z,51.90
2022-09-23T21:39:01.963Z,57.92
2022-09-23T21:41:29.197Z,58.20
2022-09-23T21:43:56.510Z,57.95
2022-09-23T21:46:28.321Z,57.13
2022-09-23T21:48:57.565Z,62.28
2022-09-23T21:51:30.139Z,55.97
2022-09-23T21:53:58.423Z,62.15
2022-09-23T21:56:30.212Z,67.72
2022-09-23T21:58:58.736Z,65.65
2022-09-23T22:01:33.309Z,64.10
2022-09-23T22:04:10.529Z,65.28
2022-09-23T22:06:40.717Z,70.82
2022-09-23T22:11:55.741Z,68.90
2022-09-23T22:14:26.133Z,73.78
2022-09-23T22:16:59.689Z,87.38
2022-09-23T22:19:46.713Z,70.80
2022-09-23T22:22:16.499Z,73.00
2022-09-23T22:24:44.704Z,65.28
2022-09-23T22:27:14.321Z,62.60
2022-09-23T22:29:59.484Z,63.63
2022-09-23T22:32:35.124Z,69.10
2022-09-23T22:35:02.701Z,62.22
2022-09-23T22:37:34.685Z,53.85
2022-09-23T22:40:05.578Z,64.05
2022-09-23T22:42:32.823Z,67.80
2022-09-23T22:44:59.545Z,96.57
2022-09-23T22:47:27.125Z,86.18
2022-09-23T22:49:55.454Z,101.88
2022-09-23T22:52:24.602Z,85.78
2022-09-23T22:54:52.432Z,80.30
2022-09-23T22:57:19.606Z,79.28
2022-09-23T22:59:48.246Z,83.90
2022-09-23T23:02:18.179Z,78.72
2022-09-23T23:04:47.181Z,83.18
2022-09-23T23:07:15.408Z,82.82
2022-09-23T23:09:42.176Z,84.80
2022-09-23T23:12:08.899Z,71.45
2022-09-23T23:14:36.122Z,76.88
2022-09-23T23:17:07.176Z,81.70
2022-09-23T23:19:35.312Z,80.15
2022-09-23T23:22:02.115Z,79.90
2022-09-23T23:24:29.002Z,77.25
2022-09-23T23:26:55.644Z,69.88
2022-09-23T23:29:23.267Z,73.68
2022-09-23T23:31:50.348Z,79.65
2022-09-23T23:34:19.788Z,70.40
2022-09-23T23:36:47.957Z,77.78
2022-09-23T23:39:14.924Z,74.45
2022-09-23T23:41:41.725Z,77.55
2022-09-23T23:44:08.750Z,73.85
2022-09-23T23:46:37.337Z,73.60
2022-09-23T23:49:04.517Z,69.07
2022-09-23T23:51:31.256Z,68.90
2022-09-23T23:53:59.651Z,74.80
2022-09-23T23:56:27.187Z,79.93
2022-09-23T23:58:55.591Z,82.68
